• Join FlightAware (Why Join?)
  • Login
  • US Flag 
02:29PM EDT


 

Airport Tracker/Info


-or-


 

Live Flight TrackerFlight Track Log ✈ SWA1787 ✈ 27-Jul-2013 ✈ KTPA - KFLL

Flight Track Log - Related Links

Times and Time Zones

All times are in EDT time to prevent confusion due to time zone crossing. See the SWA1787 flight status page for this flight to view local times or setup timezone preferences in your user account.

Time Position Orientation Groundspeed Altitude Reporting Facility
EDT Latitude Longitude Course Direction KTS MPH feet Rate Location/Type
07:38PM 28.0333 -82.5333 360° North 198 228 3,200  Level Tampa TRACON
07:39PM 28.1000 -82.5333 360° North 223 257 7,500 4,140 Climbing Tampa TRACON
07:40PM 28.1000 -82.5833 270° West 239 275 11,500 1,680 Climbing Tampa TRACON
07:42PM 27.9633 -82.5803 179° South 334 384 11,900 900 Climbing Miami Center
07:43PM 27.8592 -82.5797 180° South 365 420 13,900 2,580 Climbing Miami Center
07:44PM 27.7489 -82.5694 175° South 382 440 17,100 3,240 Climbing Miami Center
07:45PM 27.6406 -82.5150 156° South 406 467 20,400 2,940 Climbing Miami Center
07:46PM 27.5300 -82.4578 155° Southeast 417 480 23,000 2,280 Climbing Miami Center
07:47PM 27.4058 -82.3842 152° Southeast 448 516 25,000 960 Climbing Miami Center
07:48PM 27.2914 -82.3156 152° Southeast 461 531 25,000  Level Miami Center
07:49PM 27.1894 -82.2547 152° Southeast 461 531 25,000  Level Miami Center
07:50PM 27.0750 -82.1889 153° Southeast 461 531 25,000  Level Miami Center
07:51PM 26.9503 -82.1178 153° Southeast 461 531 25,000 -300 Level Miami Center
07:52PM 26.8706 -82.0094 130° Southeast 456 525 24,400 -840 Descending Miami Center
07:53PM 26.7911 -81.8967 128° Southeast 450 518 23,400 -1,020 Descending Miami Center
07:54PM 26.7111 -81.7908 130° Southeast 445 512 22,400 -1,020 Descending Miami Center
07:55PM 26.6333 -81.6856 130° Southeast 445 512 21,400 -960 Descending Miami Center
07:56PM 26.5575 -81.5803 129° Southeast 439 505 20,500 -900 Descending Miami Center
07:57PM 26.4975 -81.5014 130° Southeast 433 498 19,700 -1,020 Descending Miami Center
07:58PM 26.4153 -81.3892 129° Southeast 427 491 18,500 -2,340 Descending Miami Center
07:59PM 26.3372 -81.2794 128° Southeast 418 481 15,100 -3,240 Descending Miami Center
08:00PM 26.2647 -81.1889 132° Southeast 400 460 12,100 -2,520 Descending Miami Center
08:01PM 26.1939 -81.1100 135° Southeast 376 433 10,100 -1,440 Descending Miami Center
08:02PM 26.1478 -81.0503 131° Southeast 287 330 9,500 -1,140 Descending Miami Center
08:03PM 26.1061 -80.9681 119° Southeast 299 344 7,900 -1,320 Descending Miami Center
08:04PM 26.0958 -80.8844 98° East 274 315 6,700 -960 Descending Miami Center
08:05PM 26.0922 -80.7964 93° East 274 315 6,000 -360 Descending Miami Center
08:06PM 26.0944 -80.7108 88° East 279 321 6,000  Level Miami Center
08:07PM 26.1028 -80.6256 84° East 272 313 6,000  Level Miami Center
08:08PM 26.1114 -80.5378 84° East 272 313 6,000  Level Miami Center
08:09PM 26.1219 -80.4503 82° East 272 313 6,000  Level Miami Center
08:10PM 26.1261 -80.3647 87° East 281 323 6,000  Level Miami Center
08:11PM 26.1383 -80.2864 80° East 272 313 6,000  Level Miami Center
08:12PM 26.1425 -80.1964 87° East 242 278 6,000 -60 Level Miami Center
08:13PM 26.1506 -80.1225 83° East 241 277 5,900 -600 Descending Miami Center
08:14PM 26.1522 -80.0461 89° East 240 276 4,800 -1,020 Descending Miami Center
08:15PM 26.1581 -79.9700 85° East 236 272 3,900 -720 Descending Miami Center
08:16PM 26.1403 -79.9139 109° East 220 253 3,400 -720 Descending Miami Center
08:17PM 26.0839 -79.9125 179° South 201 231 2,500 -600 Descending Miami Center
08:18PM 26.0719 -79.9864 260° West 194 223 2,000 -300 Descending Miami Center
08:19PM 26.0753 -80.0281 275° West 179 206 1,900 -540 Descending Miami Center
08:20PM 26.0722 -80.0764 266° West 151 174 1,100 -720 Descending Miami Center
08:21PM 26.0753 -80.1228 274° West 130 150 400 -660 Descending Miami Center